createdAt,value
2024-02-24T00:00:01.146Z,74.56
2024-02-24T00:00:57.840Z,74.56
2024-02-24T00:01:54.528Z,74.18
2024-02-24T00:02:51.311Z,74.36
2024-02-24T00:03:48.067Z,74.11
2024-02-24T00:04:44.875Z,74.40
2024-02-24T00:05:41.930Z,74.00
2024-02-24T00:06:38.696Z,74.44
2024-02-24T00:07:35.355Z,74.78
2024-02-24T00:08:32.012Z,74.46
2024-02-24T00:09:28.936Z,74.57
2024-02-24T00:10:25.704Z,74.12
2024-02-24T00:11:22.418Z,73.98
2024-02-24T00:12:19.139Z,74.40
2024-02-24T00:13:15.848Z,73.78
2024-02-24T00:14:12.582Z,74.26
2024-02-24T00:15:10.192Z,74.60
2024-02-24T00:16:07.060Z,74.25
2024-02-24T00:17:04.174Z,74.08
2024-02-24T00:18:00.970Z,73.80
2024-02-24T00:19:00.527Z,73.69
2024-02-24T00:19:57.388Z,74.54
2024-02-24T00:20:54.334Z,75.34
2024-02-24T00:21:51.892Z,75.60
2024-02-24T00:22:48.678Z,75.75
2024-02-24T00:23:45.278Z,75.90
2024-02-24T00:24:41.920Z,76.16
2024-02-24T00:25:38.642Z,75.01
2024-02-24T00:26:35.456Z,75.46
2024-02-24T00:27:32.052Z,74.89
2024-02-24T00:28:28.675Z,76.23
2024-02-24T00:29:25.321Z,76.96
2024-02-24T00:30:22.001Z,76.45
2024-02-24T00:31:18.660Z,76.08
2024-02-24T00:32:15.323Z,75.78
2024-02-24T00:33:11.983Z,74.79
2024-02-24T00:34:08.663Z,73.88
2024-02-24T00:35:06.253Z,73.78
2024-02-24T00:36:04.849Z,74.09
2024-02-24T00:37:01.590Z,73.61
2024-02-24T00:37:58.729Z,73.78
2024-02-24T00:38:55.532Z,74.54
2024-02-24T00:39:53.203Z,74.94
2024-02-24T00:40:49.758Z,75.26
2024-02-24T00:41:46.502Z,74.91
2024-02-24T00:42:43.091Z,74.59
2024-02-24T00:43:39.713Z,74.77
2024-02-24T00:44:36.394Z,74.35
2024-02-24T00:45:33.078Z,74.85
2024-02-24T00:46:29.693Z,73.91
2024-02-24T00:47:26.364Z,75.07
2024-02-24T00:48:23.045Z,75.37
2024-02-24T00:49:19.917Z,76.01
2024-02-24T00:50:17.586Z,76.07
2024-02-24T00:51:14.266Z,75.96
2024-02-24T00:52:10.897Z,75.69
2024-02-24T00:53:07.641Z,75.98
2024-02-24T00:54:05.645Z,76.01
2024-02-24T00:55:02.422Z,76.63
2024-02-24T00:55:59.040Z,76.02
2024-02-24T00:56:55.611Z,76.30
2024-02-24T00:57:52.228Z,76.34
2024-02-24T00:58:48.804Z,76.08
2024-02-24T00:59:45.514Z,75.15
2024-02-24T01:00:42.340Z,74.78
2024-02-24T01:01:39.009Z,74.43
2024-02-24T01:02:35.655Z,74.49
2024-02-24T01:03:32.290Z,73.99
2024-02-24T01:04:30.150Z,74.22
2024-02-24T01:05:26.892Z,75.77
2024-02-24T01:06:23.654Z,75.21
2024-02-24T01:07:20.351Z,75.09
2024-02-24T01:08:17.106Z,75.23
2024-02-24T01:09:13.928Z,74.42
2024-02-24T01:10:11.312Z,74.96
2024-02-24T01:11:08.581Z,75.28
2024-02-24T01:12:05.950Z,76.33
2024-02-24T01:13:02.750Z,76.05
2024-02-24T01:14:00.282Z,76.36
2024-02-24T01:14:58.363Z,75.48
2024-02-24T01:15:55.307Z,75.20
2024-02-24T01:16:51.931Z,74.34
2024-02-24T01:17:50.377Z,75.09
2024-02-24T01:18:47.100Z,74.13
2024-02-24T01:19:43.745Z,74.54
2024-02-24T01:20:40.468Z,74.66
2024-02-24T01:21:43.535Z,75.44
2024-02-24T01:22:40.195Z,75.60
2024-02-24T01:23:36.849Z,75.80
2024-02-24T01:24:33.567Z,74.62
2024-02-24T01:25:30.181Z,74.28
2024-02-24T01:26:26.789Z,75.63
2024-02-24T01:27:23.508Z,76.52
2024-02-24T01:28:21.637Z,76.42
2024-02-24T01:29:18.269Z,77.07
2024-02-24T01:30:14.952Z,78.27
2024-02-24T01:31:11.565Z,77.99
2024-02-24T01:32:08.246Z,76.99
2024-02-24T01:33:08.083Z,76.75
2024-02-24T01:34:05.061Z,75.78
2024-02-24T01:35:03.770Z,76.11
2024-02-24T01:36:00.377Z,75.95
2024-02-24T01:36:57.698Z,75.56
2024-02-24T01:37:54.314Z,74.63
2024-02-24T01:38:51.106Z,73.99
2024-02-24T01:39:47.984Z,73.62
2024-02-24T01:40:44.778Z,74.11
2024-02-24T01:41:41.468Z,75.20
2024-02-24T01:42:38.216Z,75.07
2024-02-24T01:43:38.432Z,74.99
2024-02-24T01:44:35.183Z,73.96
2024-02-24T01:45:32.132Z,73.63
2024-02-24T01:46:29.741Z,73.89
2024-02-24T01:47:26.475Z,74.64
2024-02-24T01:48:23.832Z,75.37
2024-02-24T01:49:20.749Z,75.82
2024-02-24T01:50:17.781Z,75.27
2024-02-24T01:51:16.350Z,75.69
2024-02-24T01:52:13.606Z,75.85
2024-02-24T01:53:10.820Z,76.78
2024-02-24T01:54:08.311Z,76.75
2024-02-24T01:55:06.093Z,76.80
2024-02-24T01:56:07.807Z,75.63
2024-02-24T01:57:05.939Z,74.75
2024-02-24T01:58:04.749Z,75.69
2024-02-24T01:59:02.019Z,75.49
2024-02-24T01:59:58.836Z,74.60
2024-02-24T02:00:55.787Z,74.78
2024-02-24T02:01:52.975Z,75.04
2024-02-24T02:02:50.322Z,74.52
2024-02-24T02:03:47.070Z,74.38
2024-02-24T02:04:43.803Z,74.01
2024-02-24T02:05:41.260Z,73.46
2024-02-24T02:07:36.351Z,74.58
2024-02-24T02:08:33.367Z,73.23
2024-02-24T02:09:30.077Z,72.67
2024-02-24T02:10:26.782Z,73.22
2024-02-24T02:11:23.706Z,73.30
2024-02-24T02:12:20.466Z,74.44
2024-02-24T02:13:17.224Z,76.50
2024-02-24T02:14:13.891Z,76.81
2024-02-24T02:15:10.923Z,75.92
2024-02-24T02:16:07.915Z,76.16
2024-02-24T02:17:04.728Z,75.86
2024-02-24T02:18:01.590Z,76.07
2024-02-24T02:18:58.543Z,76.90
2024-02-24T02:20:00.720Z,76.44
2024-02-24T02:20:59.900Z,75.95
2024-02-24T02:21:59.824Z,75.51
2024-02-24T02:22:56.910Z,74.73
2024-02-24T02:23:53.611Z,74.63
2024-02-24T02:24:50.242Z,74.72
2024-02-24T02:25:47.007Z,73.16
2024-02-24T02:26:43.638Z,71.93
2024-02-24T02:27:40.228Z,73.17
2024-02-24T02:28:36.920Z,73.33
2024-02-24T02:29:36.782Z,73.43
2024-02-24T02:30:33.628Z,73.66
2024-02-24T02:31:30.282Z,74.61
2024-02-24T02:32:27.100Z,74.93
2024-02-24T02:33:24.086Z,75.65
2024-02-24T02:34:21.105Z,75.45
2024-02-24T02:35:18.939Z,74.26
2024-02-24T02:36:15.605Z,74.38
2024-02-24T02:37:12.209Z,73.75
2024-02-24T02:38:10.593Z,73.87
2024-02-24T02:39:07.289Z,74.41
2024-02-24T02:40:04.572Z,74.79
2024-02-24T02:41:02.985Z,75.00
2024-02-24T02:41:59.612Z,76.29
2024-02-24T02:42:56.324Z,75.73
2024-02-24T02:43:53.016Z,76.27
2024-02-24T02:44:49.577Z,77.47
2024-02-24T02:45:46.218Z,77.57
2024-02-24T02:46:50.244Z,77.46
2024-02-24T02:47:47.002Z,77.92
2024-02-24T02:48:43.883Z,78.03
2024-02-24T02:49:40.660Z,78.17
2024-02-24T02:50:37.394Z,78.23
2024-02-24T02:51:34.125Z,79.16
2024-02-24T02:52:31.340Z,79.68
2024-02-24T02:53:28.073Z,79.39
2024-02-24T02:54:24.749Z,80.16
2024-02-24T02:55:22.147Z,79.60
2024-02-24T02:56:22.150Z,79.53
2024-02-24T02:57:18.970Z,79.35
2024-02-24T02:58:15.711Z,79.46
2024-02-24T02:59:12.366Z,80.07
2024-02-24T03:00:09.548Z,80.78
2024-02-24T03:01:09.866Z,81.37
2024-02-24T03:02:06.586Z,81.75
2024-02-24T03:03:03.449Z,81.63
2024-02-24T03:04:00.158Z,82.33
2024-02-24T03:04:56.864Z,82.87
2024-02-24T03:05:53.586Z,83.45
2024-02-24T03:06:50.437Z,83.01
2024-02-24T03:07:47.236Z,83.30
2024-02-24T03:08:43.841Z,82.57
2024-02-24T03:09:40.478Z,82.59
2024-02-24T03:10:37.771Z,82.81
2024-02-24T03:11:34.845Z,83.36
2024-02-24T03:12:31.618Z,84.05
2024-02-24T03:13:28.298Z,84.15
2024-02-24T03:14:25.045Z,84.11
2024-02-24T03:15:21.819Z,83.33
2024-02-24T03:16:21.483Z,83.10
2024-02-24T03:17:18.183Z,83.36
2024-02-24T03:18:15.632Z,82.97
2024-02-24T03:19:12.879Z,84.03
2024-02-24T03:20:10.308Z,84.41
2024-02-24T03:21:07.074Z,83.73
2024-02-24T03:22:03.853Z,83.73
2024-02-24T03:23:00.584Z,83.92
2024-02-24T03:23:57.319Z,84.86
2024-02-24T03:24:54.792Z,85.74
2024-02-24T03:25:51.411Z,85.18
2024-02-24T03:26:48.228Z,82.95
2024-02-24T03:27:44.928Z,83.46
2024-02-24T03:28:41.546Z,84.77
2024-02-24T03:29:38.336Z,83.67
2024-02-24T03:30:34.967Z,83.47
2024-02-24T03:31:31.553Z,80.89
2024-02-24T03:32:28.305Z,81.23
2024-02-24T03:33:25.072Z,80.53
2024-02-24T03:34:21.816Z,81.31
2024-02-24T03:35:18.564Z,83.25
2024-02-24T03:36:16.855Z,84.00
2024-02-24T03:37:13.613Z,84.00
2024-02-24T03:38:10.249Z,83.05
2024-02-24T03:39:07.737Z,82.24
2024-02-24T03:40:04.776Z,81.57
2024-02-24T03:41:01.509Z,81.63
2024-02-24T03:41:58.337Z,82.58
2024-02-24T03:42:55.021Z,81.77
2024-02-24T03:43:51.844Z,79.39
2024-02-24T03:44:48.622Z,80.02
2024-02-24T03:45:45.248Z,80.76
2024-02-24T03:46:41.954Z,82.45
2024-02-24T03:47:38.636Z,82.89
2024-02-24T03:48:35.527Z,83.06
2024-02-24T03:49:32.261Z,82.52
2024-02-24T03:50:28.963Z,82.22
2024-02-24T03:51:25.599Z,82.62
2024-02-24T03:52:22.409Z,83.18
2024-02-24T03:53:19.083Z,83.88
2024-02-24T03:54:15.718Z,84.59
2024-02-24T03:55:12.325Z,84.69
2024-02-24T03:56:09.046Z,84.83
2024-02-24T03:57:05.814Z,84.05
2024-02-24T03:58:02.530Z,83.89
2024-02-24T03:58:59.124Z,83.48
2024-02-24T03:59:56.351Z,83.03
2024-02-24T04:00:53.377Z,82.39
2024-02-24T04:01:50.105Z,83.12
2024-02-24T04:02:46.866Z,83.16
2024-02-24T04:03:43.588Z,84.81
2024-02-24T04:04:40.357Z,84.76
2024-02-24T04:05:37.059Z,84.13
2024-02-24T04:06:33.772Z,83.63
2024-02-24T04:07:30.376Z,82.78
2024-02-24T04:08:27.092Z,83.68
2024-02-24T04:09:23.827Z,83.81
2024-02-24T04:10:20.557Z,83.16
2024-02-24T04:11:17.517Z,82.31
2024-02-24T04:12:14.233Z,81.58
2024-02-24T04:13:11.014Z,81.20
2024-02-24T04:14:07.687Z,80.20
2024-02-24T04:15:04.637Z,80.00
2024-02-24T04:16:01.287Z,79.63
2024-02-24T04:16:57.985Z,79.56
2024-02-24T04:17:54.760Z,80.71
2024-02-24T04:18:51.652Z,81.12
2024-02-24T04:19:48.382Z,81.63
2024-02-24T04:20:46.404Z,80.82
2024-02-24T04:21:43.101Z,81.84
2024-02-24T04:22:40.253Z,83.17
2024-02-24T04:23:37.068Z,84.70
2024-02-24T04:24:33.810Z,84.64
2024-02-24T04:25:30.410Z,83.86
2024-02-24T04:26:26.993Z,82.46
2024-02-24T04:27:23.623Z,80.46
2024-02-24T04:28:22.635Z,80.82
2024-02-24T04:29:19.810Z,81.33
2024-02-24T04:30:16.566Z,81.45
2024-02-24T04:31:13.293Z,82.26
2024-02-24T04:32:09.923Z,82.08
2024-02-24T04:33:07.777Z,81.32
2024-02-24T04:34:04.541Z,80.63
2024-02-24T04:35:01.655Z,79.79
2024-02-24T04:35:58.672Z,79.07
2024-02-24T04:36:55.359Z,79.17
2024-02-24T04:37:51.954Z,79.49
2024-02-24T04:38:48.999Z,79.67
2024-02-24T04:39:45.630Z,79.96
2024-02-24T04:40:42.279Z,80.82
2024-02-24T04:41:39.013Z,80.49
2024-02-24T04:42:35.687Z,78.20
2024-02-24T04:43:35.529Z,77.99
2024-02-24T04:44:34.129Z,78.16
2024-02-24T04:45:30.836Z,78.12
2024-02-24T04:46:27.488Z,78.90
2024-02-24T04:47:27.135Z,78.91
2024-02-24T04:48:24.664Z,79.12
2024-02-24T04:49:21.524Z,78.87
2024-02-24T04:50:18.200Z,78.77
2024-02-24T04:51:14.886Z,79.18
2024-02-24T04:52:11.496Z,78.94
2024-02-24T04:53:08.329Z,79.46
2024-02-24T04:54:05.052Z,80.46
2024-02-24T04:55:01.741Z,80.21
2024-02-24T04:55:58.320Z,79.63
2024-02-24T04:56:55.012Z,79.78
2024-02-24T04:57:51.658Z,80.31
2024-02-24T04:58:48.255Z,81.39
2024-02-24T04:59:44.983Z,81.17
2024-02-24T05:00:41.675Z,81.35
2024-02-24T05:01:38.588Z,81.34
2024-02-24T05:02:35.789Z,81.97
2024-02-24T05:03:32.510Z,83.42
2024-02-24T05:04:29.180Z,84.29
2024-02-24T05:05:25.915Z,84.17
2024-02-24T05:06:22.719Z,84.63
2024-02-24T05:07:19.396Z,85.35
2024-02-24T05:08:16.212Z,84.53
2024-02-24T05:09:13.637Z,83.67
2024-02-24T05:10:10.468Z,82.49
2024-02-24T05:11:07.168Z,81.75
2024-02-24T05:12:04.130Z,82.19
2024-02-24T05:13:02.997Z,82.96
2024-02-24T05:14:00.993Z,82.36
2024-02-24T05:14:57.603Z,82.34
2024-02-24T05:15:54.440Z,82.90
2024-02-24T05:16:51.118Z,82.74
2024-02-24T05:17:48.061Z,83.08
2024-02-24T05:18:44.882Z,83.08
2024-02-24T05:19:41.799Z,82.31
2024-02-24T05:20:39.131Z,81.72
2024-02-24T05:21:36.007Z,81.73
2024-02-24T05:22:32.596Z,80.81
2024-02-24T05:23:29.739Z,79.98
2024-02-24T05:24:26.390Z,79.94
2024-02-24T05:25:23.030Z,81.15
2024-02-24T05:26:24.164Z,81.88
2024-02-24T05:27:21.215Z,82.01
2024-02-24T05:28:18.004Z,81.80
2024-02-24T05:29:15.694Z,82.13
2024-02-24T05:30:12.403Z,82.02
2024-02-24T05:31:09.069Z,81.43
2024-02-24T05:32:05.860Z,80.98
2024-02-24T05:33:02.645Z,80.44
2024-02-24T05:33:59.415Z,80.59
2024-02-24T05:34:56.257Z,80.55
2024-02-24T05:35:52.968Z,80.79
2024-02-24T05:36:50.033Z,80.46
2024-02-24T05:37:46.678Z,80.03
2024-02-24T05:38:43.796Z,79.67
2024-02-24T05:39:40.441Z,79.67
2024-02-24T05:40:37.122Z,80.08
2024-02-24T05:41:34.481Z,80.57
2024-02-24T05:42:31.225Z,80.67
2024-02-24T05:43:28.602Z,80.63
2024-02-24T05:44:26.065Z,80.42
2024-02-24T05:45:22.744Z,80.41
2024-02-24T05:46:19.583Z,80.66
2024-02-24T05:47:16.279Z,81.14
2024-02-24T05:48:12.987Z,81.13
2024-02-24T05:49:09.828Z,81.18
2024-02-24T05:50:07.072Z,81.22
2024-02-24T05:51:10.156Z,80.98
2024-02-24T05:52:06.767Z,81.14
2024-02-24T05:53:03.499Z,81.16
2024-02-24T05:54:00.280Z,80.68
2024-02-24T05:54:56.982Z,80.59
2024-02-24T05:55:53.751Z,80.40
2024-02-24T05:56:50.418Z,80.28
2024-02-24T05:57:47.095Z,80.03
2024-02-24T05:58:43.824Z,80.19
2024-02-24T05:59:40.456Z,80.54
2024-02-24T06:00:37.264Z,80.61
2024-02-24T06:01:34.082Z,80.30
2024-02-24T06:02:30.728Z,79.46
2024-02-24T06:03:28.800Z,79.29
2024-02-24T06:04:25.451Z,78.98
2024-02-24T06:05:22.071Z,79.10
2024-02-24T06:06:19.534Z,79.11
2024-02-24T06:07:16.278Z,78.88
2024-02-24T06:08:13.600Z,79.25
2024-02-24T06:09:10.298Z,79.02
2024-02-24T06:10:07.975Z,78.80
2024-02-24T06:11:04.685Z,78.93
2024-02-24T06:12:01.459Z,78.43
2024-02-24T06:13:00.559Z,78.28
2024-02-24T06:13:57.187Z,78.11
2024-02-24T06:14:53.906Z,78.46
2024-02-24T06:15:50.567Z,78.27
2024-02-24T06:16:47.252Z,79.05
2024-02-24T06:17:43.954Z,78.87
2024-02-24T06:18:40.758Z,79.41
2024-02-24T06:19:37.520Z,79.42
2024-02-24T06:20:34.337Z,79.71
2024-02-24T06:21:32.668Z,79.33
2024-02-24T06:22:29.320Z,78.98
2024-02-24T06:23:26.119Z,78.29
2024-02-24T06:24:22.849Z,77.65
2024-02-24T06:25:19.840Z,77.32
2024-02-24T06:26:16.599Z,77.43
2024-02-24T06:27:13.229Z,76.92
2024-02-24T06:28:12.032Z,77.47
2024-02-24T06:29:09.149Z,76.94
2024-02-24T06:30:06.847Z,76.91
2024-02-24T06:31:03.621Z,76.28
2024-02-24T06:32:00.223Z,76.29
2024-02-24T06:32:56.984Z,76.49
2024-02-24T06:33:54.793Z,76.04
2024-02-24T06:34:51.542Z,76.10
2024-02-24T06:35:48.293Z,75.53
2024-02-24T06:36:44.980Z,75.72
2024-02-24T06:37:43.460Z,75.71
2024-02-24T06:38:40.105Z,76.04
2024-02-24T06:39:36.777Z,76.20
2024-02-24T06:40:41.201Z,76.65
2024-02-24T06:41:42.384Z,78.05
2024-02-24T06:42:39.177Z,77.19
2024-02-24T06:43:35.870Z,78.00
2024-02-24T06:44:32.586Z,78.83
2024-02-24T06:45:29.218Z,78.93
2024-02-24T06:46:26.519Z,78.97
2024-02-24T06:47:29.111Z,78.76
2024-02-24T06:48:26.530Z,77.84
2024-02-24T06:49:23.404Z,77.82
2024-02-24T06:50:20.890Z,77.19
2024-02-24T06:51:17.548Z,78.78
2024-02-24T06:52:14.249Z,79.75
2024-02-24T06:53:11.011Z,78.89
2024-02-24T06:54:07.684Z,77.12
2024-02-24T06:55:04.781Z,76.26
2024-02-24T06:56:10.762Z,74.72
2024-02-24T06:57:07.978Z,74.67
2024-02-24T06:58:04.778Z,75.23
2024-02-24T06:59:07.084Z,75.54
2024-02-24T07:00:04.510Z,76.79
2024-02-24T07:01:01.242Z,76.30
2024-02-24T07:01:57.885Z,76.53
2024-02-24T07:02:55.764Z,75.17
2024-02-24T07:03:52.812Z,72.63
2024-02-24T07:04:49.542Z,72.55
2024-02-24T07:05:46.436Z,71.79
2024-02-24T07:06:43.294Z,71.55
2024-02-24T07:07:39.891Z,71.02
2024-02-24T07:08:36.602Z,70.46
2024-02-24T07:09:33.504Z,70.26
2024-02-24T07:10:30.151Z,69.46
2024-02-24T07:11:26.896Z,68.05
2024-02-24T07:12:23.627Z,69.79
2024-02-24T07:13:20.387Z,69.38
2024-02-24T07:14:17.096Z,69.13
2024-02-24T07:15:13.748Z,67.44
2024-02-24T07:16:10.769Z,67.50
2024-02-24T07:17:07.680Z,66.11
2024-02-24T07:18:06.865Z,67.60
2024-02-24T07:19:03.705Z,64.83
2024-02-24T07:20:00.348Z,64.05
2024-02-24T07:20:57.580Z,63.93
2024-02-24T07:21:54.993Z,63.52
2024-02-24T07:22:51.649Z,64.63
2024-02-24T07:23:49.009Z,64.68
2024-02-24T07:24:45.697Z,65.21
2024-02-24T07:25:43.010Z,64.74
2024-02-24T07:26:46.823Z,64.19
2024-02-24T07:27:45.772Z,65.50
2024-02-24T07:28:42.403Z,65.30
2024-02-24T07:29:39.176Z,64.18
2024-02-24T07:30:35.910Z,63.37
2024-02-24T07:31:32.562Z,62.69
2024-02-24T07:32:29.359Z,62.41
2024-02-24T07:33:26.166Z,62.26
2024-02-24T07:34:23.051Z,62.42
2024-02-24T07:35:19.781Z,60.91
2024-02-24T07:36:16.525Z,60.86
2024-02-24T07:37:13.290Z,60.97
2024-02-24T07:38:09.938Z,60.98
2024-02-24T07:39:06.549Z,60.31
2024-02-24T07:40:06.511Z,60.97
2024-02-24T07:41:03.302Z,60.65
2024-02-24T07:42:00.036Z,60.69
2024-02-24T07:42:56.734Z,59.80
2024-02-24T07:43:53.366Z,59.68
2024-02-24T07:44:50.052Z,60.59
2024-02-24T07:45:46.753Z,60.71
2024-02-24T07:46:43.456Z,60.81
2024-02-24T07:47:40.142Z,60.31
2024-02-24T07:48:38.816Z,60.32
2024-02-24T07:49:35.613Z,60.33
2024-02-24T07:50:32.302Z,59.46
2024-02-24T07:51:29.740Z,59.66
2024-02-24T07:52:26.394Z,59.93
2024-02-24T07:53:23.029Z,59.60
2024-02-24T07:54:19.763Z,59.58
2024-02-24T07:55:16.907Z,59.05
2024-02-24T07:56:13.611Z,57.10
2024-02-24T07:57:10.336Z,57.57
2024-02-24T07:58:06.945Z,57.21
2024-02-24T07:59:04.904Z,57.19
2024-02-24T08:00:01.577Z,57.03
2024-02-24T08:00:58.224Z,57.85
2024-02-24T08:01:54.964Z,56.69
2024-02-24T08:02:51.659Z,56.50
2024-02-24T08:03:48.384Z,56.08
2024-02-24T08:04:44.981Z,55.84
2024-02-24T08:05:41.732Z,53.54
2024-02-24T08:06:38.611Z,55.13
2024-02-24T08:07:35.975Z,54.79
2024-02-24T08:08:35.171Z,54.24
2024-02-24T08:09:31.886Z,54.29
2024-02-24T08:10:28.512Z,53.23
2024-02-24T08:11:25.561Z,52.40
2024-02-24T08:12:22.670Z,52.47
2024-02-24T08:13:19.889Z,52.93
2024-02-24T08:14:16.612Z,52.10
2024-02-24T08:15:13.265Z,52.29
2024-02-24T08:16:10.476Z,52.89
2024-02-24T08:17:07.772Z,52.93
2024-02-24T08:18:04.909Z,52.12
2024-02-24T08:19:03.145Z,52.70
2024-02-24T08:19:59.969Z,53.21
2024-02-24T08:20:56.834Z,53.65
2024-02-24T08:21:53.578Z,52.04
2024-02-24T08:22:51.488Z,52.41
2024-02-24T08:23:48.286Z,52.91
2024-02-24T08:24:44.959Z,51.09
2024-02-24T08:25:41.580Z,51.50
2024-02-24T08:26:41.268Z,49.16
2024-02-24T08:27:38.521Z,48.18
2024-02-24T08:28:35.134Z,48.77
2024-02-24T08:29:33.158Z,47.92
2024-02-24T08:30:29.916Z,50.16
2024-02-24T08:31:26.551Z,50.08
2024-02-24T08:32:23.454Z,50.04
2024-02-24T08:33:24.142Z,50.10
2024-02-24T08:34:21.149Z,48.87
2024-02-24T08:35:18.413Z,48.05
2024-02-24T08:36:17.160Z,49.38
2024-02-24T08:37:13.957Z,48.83
2024-02-24T08:38:10.594Z,50.98
2024-02-24T08:39:07.454Z,49.91
2024-02-24T08:40:04.375Z,50.37
2024-02-24T08:41:01.066Z,49.88
2024-02-24T08:41:58.150Z,50.17
2024-02-24T08:42:54.860Z,51.42
2024-02-24T08:43:51.420Z,52.30
2024-02-24T08:44:48.144Z,51.93
2024-02-24T08:45:44.963Z,51.32
2024-02-24T08:46:41.608Z,52.11
2024-02-24T08:47:38.434Z,52.66
2024-02-24T08:48:35.491Z,52.33
2024-02-24T08:49:32.286Z,52.31
2024-02-24T08:50:29.090Z,52.29
2024-02-24T08:51:27.640Z,50.19
2024-02-24T08:52:32.840Z,51.30
2024-02-24T08:53:34.709Z,51.34
2024-02-24T08:54:31.394Z,51.16
2024-02-24T08:55:28.075Z,49.89
2024-02-24T08:56:26.176Z,49.83
2024-02-24T08:57:22.933Z,48.08
2024-02-24T08:58:19.643Z,48.49
2024-02-24T08:59:16.600Z,48.45
2024-02-24T09:00:16.202Z,48.34
2024-02-24T09:01:15.272Z,47.78
2024-02-24T09:02:12.255Z,48.09
2024-02-24T09:03:09.065Z,47.76
2024-02-24T09:04:06.976Z,48.27
2024-02-24T09:05:04.644Z,47.01
2024-02-24T09:06:01.391Z,47.75
2024-02-24T09:06:58.171Z,48.17
2024-02-24T09:07:54.919Z,47.17
2024-02-24T09:08:51.580Z,48.04
2024-02-24T09:09:48.178Z,47.07
2024-02-24T09:10:44.818Z,46.84
2024-02-24T09:11:47.553Z,46.93
2024-02-24T09:12:44.313Z,45.93
2024-02-24T09:13:40.925Z,46.79
2024-02-24T09:14:37.651Z,44.76
2024-02-24T09:15:34.461Z,45.77
2024-02-24T09:16:31.104Z,46.94
2024-02-24T09:17:27.921Z,47.07
2024-02-24T09:18:26.208Z,46.67
2024-02-24T09:19:23.753Z,46.16
2024-02-24T09:20:20.925Z,45.32
2024-02-24T09:21:17.681Z,45.66
2024-02-24T09:22:14.388Z,44.80
2024-02-24T09:23:11.480Z,46.09
2024-02-24T09:24:08.412Z,46.49
2024-02-24T09:25:05.396Z,46.12
2024-02-24T09:26:03.268Z,45.68
2024-02-24T09:27:00.044Z,44.96
2024-02-24T09:27:56.824Z,45.68
2024-02-24T09:28:53.467Z,45.25
2024-02-24T09:29:50.460Z,45.25
2024-02-24T09:30:47.903Z,45.86
2024-02-24T09:31:44.620Z,44.96
2024-02-24T09:32:41.668Z,45.93
2024-02-24T09:33:38.731Z,45.38
2024-02-24T09:34:35.462Z,45.97
2024-02-24T09:35:32.135Z,44.73
2024-02-24T09:36:28.896Z,44.37
2024-02-24T09:37:25.555Z,44.31
2024-02-24T09:38:22.213Z,44.16
2024-02-24T09:39:18.860Z,43.74
2024-02-24T09:40:15.690Z,45.07
2024-02-24T09:41:12.940Z,43.42
2024-02-24T09:42:10.958Z,43.91
2024-02-24T09:43:09.749Z,43.69
2024-02-24T09:44:06.595Z,44.26
2024-02-24T09:45:13.060Z,43.46
2024-02-24T09:46:10.977Z,44.71
2024-02-24T09:47:09.485Z,43.53
2024-02-24T09:48:06.484Z,43.04
2024-02-24T09:49:03.586Z,43.94
2024-02-24T09:50:01.656Z,44.11
2024-02-24T09:51:00.753Z,42.57
2024-02-24T09:51:58.489Z,42.42
2024-02-24T09:52:55.189Z,42.63
2024-02-24T09:53:51.789Z,42.13
2024-02-24T09:54:48.505Z,42.29
2024-02-24T09:55:45.616Z,42.35
2024-02-24T09:56:43.840Z,43.73
2024-02-24T09:57:41.853Z,43.32
2024-02-24T09:58:39.969Z,44.40
2024-02-24T09:59:37.253Z,43.79
2024-02-24T10:00:34.298Z,43.43
2024-02-24T10:01:30.990Z,43.62
2024-02-24T10:02:27.996Z,43.24
2024-02-24T10:03:26.495Z,43.46
2024-02-24T10:04:24.466Z,42.39
2024-02-24T10:05:21.347Z,43.22
2024-02-24T10:06:18.810Z,42.19
2024-02-24T10:07:15.484Z,43.49
2024-02-24T10:08:12.188Z,41.92
2024-02-24T10:09:08.835Z,42.55
2024-02-24T10:10:05.993Z,41.72
2024-02-24T10:11:02.664Z,41.26
2024-02-24T10:12:01.244Z,41.07
2024-02-24T10:12:59.801Z,40.99
2024-02-24T10:13:56.803Z,41.92
2024-02-24T10:14:54.850Z,41.33
2024-02-24T10:15:51.512Z,42.29
2024-02-24T10:16:53.393Z,42.07
2024-02-24T10:17:50.117Z,41.96
2024-02-24T10:18:47.650Z,42.08
2024-02-24T10:19:47.052Z,42.54
2024-02-24T10:20:43.729Z,43.52
2024-02-24T10:21:40.504Z,42.15
2024-02-24T10:22:38.726Z,41.28
2024-02-24T10:23:35.438Z,41.32
2024-02-24T10:24:33.113Z,41.69
2024-02-24T10:25:31.306Z,41.95
2024-02-24T10:26:28.962Z,41.96
2024-02-24T10:27:27.137Z,42.18
2024-02-24T10:28:23.803Z,42.28
2024-02-24T10:29:38.702Z,42.03
2024-02-24T10:30:35.818Z,42.14
2024-02-24T10:31:35.156Z,41.17
2024-02-24T10:32:34.483Z,41.96
2024-02-24T10:33:35.295Z,42.56
2024-02-24T10:34:33.808Z,41.91
2024-02-24T10:35:31.298Z,42.40
2024-02-24T10:36:29.059Z,43.42
2024-02-24T10:37:25.736Z,42.49
2024-02-24T10:38:29.489Z,43.61
2024-02-24T10:39:35.800Z,42.99
2024-02-24T10:40:33.895Z,43.39
2024-02-24T10:41:31.432Z,42.40
2024-02-24T10:42:29.815Z,42.89
2024-02-24T10:43:29.185Z,42.80
2024-02-24T10:44:26.293Z,43.18
2024-02-24T10:45:23.657Z,42.69
2024-02-24T10:46:20.632Z,43.10
2024-02-24T10:47:17.327Z,42.77
2024-02-24T10:48:14.139Z,42.62
2024-02-24T10:49:12.409Z,41.98
2024-02-24T10:50:12.546Z,41.77
2024-02-24T10:51:13.076Z,41.44
2024-02-24T10:52:10.065Z,41.90
2024-02-24T10:53:07.872Z,42.06
2024-02-24T10:54:11.573Z,41.66
2024-02-24T10:55:09.352Z,41.68
2024-02-24T10:56:07.755Z,42.03
2024-02-24T10:57:06.510Z,41.83
2024-02-24T10:58:03.236Z,41.63
2024-02-24T10:59:12.688Z,41.68
2024-02-24T11:00:32.955Z,42.10
2024-02-24T11:01:30.119Z,42.42
2024-02-24T11:02:27.984Z,41.93
2024-02-24T11:03:24.900Z,41.35
2024-02-24T11:04:21.558Z,42.17
2024-02-24T11:05:19.107Z,42.38
2024-02-24T11:06:16.390Z,42.22
2024-02-24T11:07:23.946Z,42.86
2024-02-24T11:08:37.326Z,43.26
2024-02-24T11:09:39.166Z,43.33
2024-02-24T11:10:36.029Z,42.91
2024-02-24T11:11:32.720Z,43.39
2024-02-24T11:12:32.418Z,43.68
2024-02-24T11:13:30.105Z,42.84
2024-02-24T11:14:26.730Z,43.40
2024-02-24T11:15:25.285Z,43.24
2024-02-24T11:16:24.898Z,43.51
2024-02-24T11:17:48.068Z,44.71
2024-02-24T11:18:50.685Z,44.42
2024-02-24T11:19:48.878Z,43.63
2024-02-24T11:20:48.608Z,44.42
2024-02-24T11:22:03.118Z,43.24
2024-02-24T11:23:18.400Z,43.33
2024-02-24T11:24:20.229Z,42.90
2024-02-24T11:25:19.713Z,43.13
2024-02-24T11:26:22.219Z,42.78
2024-02-24T11:27:28.635Z,42.90
2024-02-24T11:28:25.786Z,42.89
2024-02-24T11:29:27.880Z,42.28
2024-02-24T11:30:37.059Z,42.31
2024-02-24T11:31:36.481Z,41.77
2024-02-24T11:32:33.225Z,43.07
2024-02-24T11:33:32.048Z,42.72
2024-02-24T11:34:33.899Z,43.43
2024-02-24T11:35:30.716Z,42.98
2024-02-24T11:36:28.284Z,43.83
2024-02-24T11:37:25.091Z,43.33
2024-02-24T11:38:23.337Z,43.54
2024-02-24T11:39:21.217Z,43.94
2024-02-24T11:40:18.528Z,44.39
2024-02-24T11:41:15.517Z,44.62
2024-02-24T11:42:13.173Z,44.90
2024-02-24T11:43:10.256Z,44.39
2024-02-24T11:44:08.152Z,44.58
2024-02-24T11:45:07.621Z,44.90
2024-02-24T11:46:05.012Z,44.82
2024-02-24T11:47:01.809Z,44.98
2024-02-24T11:47:58.576Z,45.40
2024-02-24T11:48:55.608Z,45.49
2024-02-24T11:49:52.663Z,45.38
2024-02-24T11:50:51.848Z,45.35
2024-02-24T11:51:48.683Z,45.41
2024-02-24T11:52:45.459Z,45.39
2024-02-24T11:53:42.148Z,45.32
2024-02-24T11:54:38.961Z,46.34
2024-02-24T11:55:36.023Z,46.02
2024-02-24T11:56:33.799Z,45.38
2024-02-24T11:57:30.517Z,46.09
2024-02-24T11:58:27.817Z,46.58
2024-02-24T11:59:24.434Z,45.91
2024-02-24T12:00:21.842Z,46.68
2024-02-24T12:01:18.506Z,46.69
2024-02-24T12:02:16.455Z,46.75
2024-02-24T12:03:17.193Z,46.43
2024-02-24T12:04:21.414Z,46.41
2024-02-24T12:05:18.533Z,46.33
2024-02-24T12:06:16.125Z,46.46
2024-02-24T12:07:13.238Z,45.64
2024-02-24T12:08:14.447Z,45.76
2024-02-24T12:09:11.719Z,46.17
2024-02-24T12:10:08.766Z,46.31
2024-02-24T12:11:05.708Z,46.42
2024-02-24T12:12:02.589Z,45.69
2024-02-24T12:12:59.307Z,45.95
2024-02-24T12:13:56.379Z,46.07
2024-02-24T12:14:55.303Z,45.94
2024-02-24T12:15:52.323Z,46.21
2024-02-24T12:16:49.086Z,46.07
2024-02-24T12:17:46.401Z,46.03
2024-02-24T12:18:44.849Z,46.56
2024-02-24T12:19:41.582Z,46.39
2024-02-24T12:20:39.521Z,46.31
2024-02-24T12:21:36.211Z,47.13